sensor_id;sensor_type;location;lat;lon;timestamp;pressure;altitude;pressure_sealevel;temperature;humidity
3132;BME280;62090;52.330;9.104;2023-04-23T00:02:15;100129.91;;;17.03;90.70
3132;BME280;62090;52.330;9.104;2023-04-23T00:04:48;100115.63;;;16.81;93.37
3132;BME280;62090;52.330;9.104;2023-04-23T00:07:20;100124.25;;;16.72;94.60
3132;BME280;62090;52.330;9.104;2023-04-23T00:09:55;100134.69;;;16.60;95.39
3132;BME280;62090;52.330;9.104;2023-04-23T00:12:27;100127.88;;;16.53;96.07
3132;BME280;62090;52.330;9.104;2023-04-23T00:14:58;100127.84;;;16.59;96.40
3132;BME280;62090;52.330;9.104;2023-04-23T00:17:29;100137.31;;;16.51;96.24
3132;BME280;62090;52.330;9.104;2023-04-23T00:19:59;100137.34;;;16.50;96.80
3132;BME280;62090;52.330;9.104;2023-04-23T00:22:29;100128.03;;;16.38;98.84
3132;BME280;62090;52.330;9.104;2023-04-23T00:25:02;100130.59;;;16.36;97.79
3132;BME280;62090;52.330;9.104;2023-04-23T00:27:32;100118.75;;;16.20;97.81
3132;BME280;62090;52.330;9.104;2023-04-23T00:30:02;100076.94;;;15.98;97.56
3132;BME280;62090;52.330;9.104;2023-04-23T00:32:32;100133.25;;;16.26;98.40
3132;BME280;62090;52.330;9.104;2023-04-23T00:35:03;100123.97;;;16.11;98.27
3132;BME280;62090;52.330;9.104;2023-04-23T00:37:33;100131.69;;;16.08;99.69
3132;BME280;62090;52.330;9.104;2023-04-23T00:40:07;100127.44;;;16.02;98.84
3132;BME280;62090;52.330;9.104;2023-04-23T00:42:38;100122.38;;;15.92;99.05
3132;BME280;62090;52.330;9.104;2023-04-23T00:45:08;100130.13;;;15.89;98.01
3132;BME280;62090;52.330;9.104;2023-04-23T00:47:39;100125.09;;;15.75;98.43
3132;BME280;62090;52.330;9.104;2023-04-23T00:50:09;100130.25;;;15.68;98.03
3132;BME280;62090;52.330;9.104;2023-04-23T00:52:39;100131.22;;;15.48;98.63
3132;BME280;62090;52.330;9.104;2023-04-23T00:55:12;100132.88;;;15.65;98.52
3132;BME280;62090;52.330;9.104;2023-04-23T00:57:42;100132.03;;;15.58;99.24
3132;BME280;62090;52.330;9.104;2023-04-23T01:00:13;100109.00;;;15.41;99.58
3132;BME280;62090;52.330;9.104;2023-04-23T01:02:43;100127.72;;;15.61;98.36
3132;BME280;62090;52.330;9.104;2023-04-23T01:05:15;100110.66;;;15.53;97.35
3132;BME280;62090;52.330;9.104;2023-04-23T01:07:46;100126.03;;;15.50;97.71
3132;BME280;62090;52.330;9.104;2023-04-23T01:10:19;100098.75;;;15.37;97.41
3132;BME280;62090;52.330;9.104;2023-04-23T01:12:49;100126.91;;;15.58;96.20
3132;BME280;62090;52.330;9.104;2023-04-23T01:15:19;100114.91;;;15.51;96.75
3132;BME280;62090;52.330;9.104;2023-04-23T01:17:49;100115.78;;;15.57;96.44
3132;BME280;62090;52.330;9.104;2023-04-23T01:20:19;100132.84;;;15.66;96.02
3132;BME280;62090;52.330;9.104;2023-04-23T01:22:52;100130.25;;;15.68;96.61
3132;BME280;62090;52.330;9.104;2023-04-23T01:25:22;100133.63;;;15.80;96.21
3132;BME280;62090;52.330;9.104;2023-04-23T01:27:51;100133.66;;;15.74;95.91
3132;BME280;62090;52.330;9.104;2023-04-23T01:30:22;100134.53;;;15.66;96.69
3132;BME280;62090;52.330;9.104;2023-04-23T01:32:53;100112.47;;;15.31;95.82
3132;BME280;62090;52.330;9.104;2023-04-23T01:35:24;100108.25;;;15.13;95.73
3132;BME280;62090;52.330;9.104;2023-04-23T01:37:58;100126.19;;;15.26;95.96
3132;BME280;62090;52.330;9.104;2023-04-23T01:40:30;100115.94;;;15.23;94.74
3132;BME280;62090;52.330;9.104;2023-04-23T01:43:00;100136.44;;;15.30;94.71
3132;BME280;62090;52.330;9.104;2023-04-23T01:45:30;100138.13;;;15.33;93.72
3132;BME280;62090;52.330;9.104;2023-04-23T01:48:00;100142.44;;;15.28;93.95
3132;BME280;62090;52.330;9.104;2023-04-23T01:50:30;100132.22;;;15.15;94.24
3132;BME280;62090;52.330;9.104;2023-04-23T01:53:02;100145.88;;;15.17;93.93
3132;BME280;62090;52.330;9.104;2023-04-23T01:55:33;100121.19;;;14.89;95.78
3132;BME280;62090;52.330;9.104;2023-04-23T01:58:06;100138.25;;;15.04;95.56
3132;BME280;62090;52.330;9.104;2023-04-23T02:00:36;100112.63;;;14.89;95.61
3132;BME280;62090;52.330;9.104;2023-04-23T02:03:05;100128.00;;;14.98;95.03
3132;BME280;62090;52.330;9.104;2023-04-23T02:05:35;100156.19;;;15.08;95.36
3132;BME280;62090;52.330;9.104;2023-04-23T02:08:10;100150.25;;;15.00;95.05
3132;BME280;62090;52.330;9.104;2023-04-23T02:10:40;100154.50;;;15.00;95.03
3132;BME280;62090;52.330;9.104;2023-04-23T02:13:10;100163.06;;;14.99;95.61
3132;BME280;62090;52.330;9.104;2023-04-23T02:15:40;100161.38;;;14.90;95.54
3132;BME280;62090;52.330;9.104;2023-04-23T02:18:11;100157.94;;;14.91;95.63
3132;BME280;62090;52.330;9.104;2023-04-23T02:20:41;100159.66;;;14.88;96.05
3132;BME280;62090;52.330;9.104;2023-04-23T02:23:13;100163.94;;;14.93;95.83
3132;BME280;62090;52.330;9.104;2023-04-23T02:25:43;100155.41;;;14.88;95.80
3132;BME280;62090;52.330;9.104;2023-04-23T02:28:13;100159.72;;;14.69;95.57
3132;BME280;62090;52.330;9.104;2023-04-23T02:30:42;100155.47;;;14.64;96.23
3132;BME280;62090;52.330;9.104;2023-04-23T02:33:13;100154.59;;;14.50;97.35
3132;BME280;62090;52.330;9.104;2023-04-23T02:35:44;100158.03;;;14.53;97.50
3132;BME280;62090;52.330;9.104;2023-04-23T02:38:17;100157.19;;;14.59;97.89
3132;BME280;62090;52.330;9.104;2023-04-23T02:40:48;100159.72;;;14.57;97.88
3132;BME280;62090;52.330;9.104;2023-04-23T02:43:18;100163.13;;;14.61;96.32
3132;BME280;62090;52.330;9.104;2023-04-23T02:45:48;100162.28;;;14.63;96.21
3132;BME280;62090;52.330;9.104;2023-04-23T02:48:17;100140.09;;;14.46;95.94
3132;BME280;62090;52.330;9.104;2023-04-23T02:50:48;100168.28;;;14.58;95.59
3132;BME280;62090;52.330;9.104;2023-04-23T02:53:20;100152.03;;;14.44;95.76
3132;BME280;62090;52.330;9.104;2023-04-23T02:55:50;100166.56;;;14.38;96.82
3132;BME280;62090;52.330;9.104;2023-04-23T02:58:20;100156.31;;;14.38;96.13
3132;BME280;62090;52.330;9.104;2023-04-23T03:00:52;100166.56;;;14.35;95.71
3132;BME280;62090;52.330;9.104;2023-04-23T03:03:22;100166.56;;;14.35;96.15
3132;BME280;62090;52.330;9.104;2023-04-23T03:06:00;100171.66;;;14.25;96.41
3132;BME280;62090;52.330;9.104;2023-04-23T03:08:32;100168.25;;;14.24;96.97
3132;BME280;62090;52.330;9.104;2023-04-23T03:11:02;100170.81;;;14.12;97.63
3132;BME280;62090;52.330;9.104;2023-04-23T03:13:32;100178.47;;;14.12;96.20
3132;BME280;62090;52.330;9.104;2023-04-23T03:16:02;100163.97;;;13.93;96.55
3132;BME280;62090;52.330;9.104;2023-04-23T03:18:33;100181.91;;;14.04;96.56
3132;BME280;62090;52.330;9.104;2023-04-23T03:21:03;100172.50;;;13.89;95.42
3132;BME280;62090;52.330;9.104;2023-04-23T03:23:35;100171.66;;;13.99;95.62
3132;BME280;62090;52.330;9.104;2023-04-23T03:26:05;100179.34;;;14.05;95.01
3132;BME280;62090;52.330;9.104;2023-04-23T03:28:35;100196.41;;;14.12;95.19
3132;BME280;62090;52.330;9.104;2023-04-23T03:31:04;100185.31;;;14.09;94.46
3132;BME280;62090;52.330;9.104;2023-04-23T03:33:34;100193.88;;;14.00;94.58
3132;BME280;62090;52.330;9.104;2023-04-23T03:36:04;100195.56;;;13.93;94.70
3132;BME280;62090;52.330;9.104;2023-04-23T03:38:37;100198.94;;;13.74;94.32
3132;BME280;62090;52.330;9.104;2023-04-23T03:41:07;100198.06;;;13.72;94.54
3132;BME280;62090;52.330;9.104;2023-04-23T03:43:39;100206.59;;;13.80;94.28
3132;BME280;62090;52.330;9.104;2023-04-23T03:46:17;100198.06;;;13.74;93.98
3132;BME280;62090;52.330;9.104;2023-04-23T03:48:47;100147.63;;;13.45;93.46
3132;BME280;62090;52.330;9.104;2023-04-23T03:51:23;100215.16;;;13.73;91.77
3132;BME280;62090;52.330;9.104;2023-04-23T03:53:56;100221.97;;;13.68;92.87
3132;BME280;62090;52.330;9.104;2023-04-23T03:56:34;100206.53;;;13.59;92.75
3132;BME280;62090;52.330;9.104;2023-04-23T03:59:19;100210.81;;;13.65;93.78
3132;BME280;62090;52.330;9.104;2023-04-23T04:01:51;100215.09;;;13.66;92.11
3132;BME280;62090;52.330;9.104;2023-04-23T04:04:24;100221.09;;;13.71;92.22
3132;BME280;62090;52.330;9.104;2023-04-23T04:06:55;100210.00;;;13.75;91.64
3132;BME280;62090;52.330;9.104;2023-04-23T04:09:29;100222.00;;;13.85;91.16
3132;BME280;62090;52.330;9.104;2023-04-23T04:12:00;100205.75;;;13.74;90.70
3132;BME280;62090;52.330;9.104;2023-04-23T04:14:30;100177.50;;;13.49;90.61
3132;BME280;62090;52.330;9.104;2023-04-23T04:17:00;100213.38;;;13.60;90.51
3132;BME280;62090;52.330;9.104;2023-04-23T04:19:29;100232.19;;;13.70;90.39
3132;BME280;62090;52.330;9.104;2023-04-23T04:21:59;100209.09;;;13.56;91.08
3132;BME280;62090;52.330;9.104;2023-04-23T04:24:32;100215.09;;;13.58;89.68
3132;BME280;62090;52.330;9.104;2023-04-23T04:27:02;100233.88;;;13.63;89.63
3132;BME280;62090;52.330;9.104;2023-04-23T04:29:33;100206.50;;;13.48;90.87
3132;BME280;62090;52.330;9.104;2023-04-23T04:32:03;100220.22;;;13.64;90.40
3132;BME280;62090;52.330;9.104;2023-04-23T04:34:32;100234.78;;;13.79;90.25
3132;BME280;62090;52.330;9.104;2023-04-23T04:37:04;100205.72;;;13.65;89.04
3132;BME280;62090;52.330;9.104;2023-04-23T04:39:38;100239.09;;;13.84;88.66
3132;BME280;62090;52.330;9.104;2023-04-23T04:42:08;100243.31;;;13.81;88.51
3132;BME280;62090;52.330;9.104;2023-04-23T04:44:38;100213.38;;;13.65;89.30
3132;BME280;62090;52.330;9.104;2023-04-23T04:47:09;100246.75;;;13.83;88.97
3132;BME280;62090;52.330;9.104;2023-04-23T04:49:39;100237.34;;;13.82;88.21
3132;BME280;62090;52.330;9.104;2023-04-23T04:52:09;100206.56;;;13.58;89.07
3132;BME280;62090;52.330;9.104;2023-04-23T04:54:41;100209.97;;;13.64;88.83
3132;BME280;62090;52.330;9.104;2023-04-23T04:57:11;100239.06;;;13.78;88.15
3132;BME280;62090;52.330;9.104;2023-04-23T04:59:40;100227.09;;;13.74;88.63
3132;BME280;62090;52.330;9.104;2023-04-23T05:02:10;100221.97;;;13.76;88.20
3132;BME280;62090;52.330;9.104;2023-04-23T05:04:40;100221.97;;;13.74;87.55
3132;BME280;62090;52.330;9.104;2023-04-23T05:07:10;100224.53;;;13.76;87.22
3132;BME280;62090;52.330;9.104;2023-04-23T05:09:42;100237.38;;;13.83;87.33
3132;BME280;62090;52.330;9.104;2023-04-23T05:12:12;100239.06;;;13.83;86.51
3132;BME280;62090;52.330;9.104;2023-04-23T05:14:42;100240.75;;;13.78;86.43
3132;BME280;62090;52.330;9.104;2023-04-23T05:17:12;100232.22;;;13.73;86.97
3132;BME280;62090;52.330;9.104;2023-04-23T05:19:42;100244.19;;;13.78;87.30
3132;BME280;62090;52.330;9.104;2023-04-23T05:22:11;100241.63;;;13.83;86.68
3132;BME280;62090;52.330;9.104;2023-04-23T05:24:44;100233.94;;;13.86;87.13
3132;BME280;62090;52.330;9.104;2023-04-23T05:27:13;100215.16;;;13.82;87.44
3132;BME280;62090;52.330;9.104;2023-04-23T05:29:43;100233.13;;;13.96;85.89
3132;BME280;62090;52.330;9.104;2023-04-23T05:32:13;100239.97;;;13.99;86.40
3132;BME280;62090;52.330;9.104;2023-04-23T05:34:43;100239.09;;;14.01;86.23
3132;BME280;62090;52.330;9.104;2023-04-23T05:37:13;100188.69;;;13.79;85.95
3132;BME280;62090;52.330;9.104;2023-04-23T05:39:45;100237.44;;;14.23;85.76
3132;BME280;62090;52.330;9.104;2023-04-23T05:42:15;100225.47;;;14.14;85.53
3132;BME280;62090;52.330;9.104;2023-04-23T05:44:45;100238.31;;;14.32;85.39
3132;BME280;62090;52.330;9.104;2023-04-23T05:47:14;100235.78;;;14.40;84.96
3132;BME280;62090;52.330;9.104;2023-04-23T05:49:44;100228.97;;;14.42;85.20
3132;BME280;62090;52.330;9.104;2023-04-23T05:52:14;100218.69;;;14.39;84.88
3132;BME280;62090;52.330;9.104;2023-04-23T05:54:46;100235.81;;;14.58;84.61
3132;BME280;62090;52.330;9.104;2023-04-23T05:57:16;100221.25;;;14.50;84.80
3132;BME280;62090;52.330;9.104;2023-04-23T05:59:46;100230.66;;;14.60;84.82
3132;BME280;62090;52.330;9.104;2023-04-23T06:02:16;100233.25;;;14.63;84.48
3132;BME280;62090;52.330;9.104;2023-04-23T06:04:50;100218.69;;;14.62;84.39
3132;BME280;62090;52.330;9.104;2023-04-23T06:07:20;100219.53;;;14.70;84.29
3132;BME280;62090;52.330;9.104;2023-04-23T06:09:52;100230.66;;;14.79;83.53
3132;BME280;62090;52.330;9.104;2023-04-23T06:12:22;100217.84;;;14.75;83.78
3132;BME280;62090;52.330;9.104;2023-04-23T06:14:52;100222.13;;;14.79;82.64
3132;BME280;62090;52.330;9.104;2023-04-23T06:17:22;100216.13;;;14.65;83.63
3132;BME280;62090;52.330;9.104;2023-04-23T06:19:52;100193.91;;;14.40;85.19
3132;BME280;62090;52.330;9.104;2023-04-23T06:22:22;100240.94;;;14.54;86.29
3132;BME280;62090;52.330;9.104;2023-04-23T06:24:54;100246.03;;;14.45;86.61
3132;BME280;62090;52.330;9.104;2023-04-23T06:27:24;100241.78;;;14.57;86.52
3132;BME280;62090;52.330;9.104;2023-04-23T06:29:58;100207.59;;;14.51;86.52
3132;BME280;62090;52.330;9.104;2023-04-23T06:32:28;100224.66;;;14.76;85.91
3132;BME280;62090;52.330;9.104;2023-04-23T06:34:58;100236.63;;;14.88;84.89
3132;BME280;62090;52.330;9.104;2023-04-23T06:37:29;100231.47;;;14.97;84.31
3132;BME280;62090;52.330;9.104;2023-04-23T06:40:01;100231.50;;;15.01;84.15
3132;BME280;62090;52.330;9.104;2023-04-23T06:42:31;100234.03;;;15.12;85.13
3132;BME280;62090;52.330;9.104;2023-04-23T06:45:18;100216.00;;;15.38;84.31
3132;BME280;62090;52.330;9.104;2023-04-23T06:47:50;100206.59;;;15.38;84.42
3132;BME280;62090;52.330;9.104;2023-04-23T06:50:20;100231.38;;;15.51;84.31
3132;BME280;62090;52.330;9.104;2023-04-23T06:52:50;100221.16;;;15.32;84.36
3132;BME280;62090;52.330;9.104;2023-04-23T06:55:24;100227.13;;;15.32;85.61
3132;BME280;62090;52.330;9.104;2023-04-23T06:57:55;100199.81;;;15.08;85.21
3132;BME280;62090;52.330;9.104;2023-04-23T07:00:25;100199.00;;;15.00;84.92
3132;BME280;62090;52.330;9.104;2023-04-23T07:02:55;100205.78;;;15.19;83.62
3132;BME280;62090;52.330;9.104;2023-04-23T07:05:25;100203.19;;;15.33;82.61
3132;BME280;62090;52.330;9.104;2023-04-23T07:07:55;100211.78;;;15.08;83.25
3132;BME280;62090;52.330;9.104;2023-04-23T07:10:27;100209.28;;;14.70;85.44
3132;BME280;62090;52.330;9.104;2023-04-23T07:12:57;100215.25;;;14.95;85.23
3132;BME280;62090;52.330;9.104;2023-04-23T07:15:27;100204.06;;;15.15;84.01
3132;BME280;62090;52.330;9.104;2023-04-23T07:17:57;100176.72;;;15.11;80.82
3132;BME280;62090;52.330;9.104;2023-04-23T07:20:26;100162.97;;;15.25;80.97
3132;BME280;62090;52.330;9.104;2023-04-23T07:22:57;100187.63;;;15.65;80.73
3132;BME280;62090;52.330;9.104;2023-04-23T07:25:29;100198.84;;;15.53;78.56
3132;BME280;62090;52.330;9.104;2023-04-23T07:27:59;100211.66;;;15.44;80.05
3132;BME280;62090;52.330;9.104;2023-04-23T07:30:30;100193.78;;;15.25;80.90
3132;BME280;62090;52.330;9.104;2023-04-23T07:32:59;100185.22;;;15.26;79.95
3132;BME280;62090;52.330;9.104;2023-04-23T07:35:29;100210.75;;;15.70;79.35
3132;BME280;62090;52.330;9.104;2023-04-23T07:37:59;100202.00;;;15.99;79.19
3132;BME280;62090;52.330;9.104;2023-04-23T07:40:32;100196.78;;;16.12;78.59
3132;BME280;62090;52.330;9.104;2023-04-23T07:43:02;100196.88;;;15.99;75.64
3132;BME280;62090;52.330;9.104;2023-04-23T07:45:32;100202.78;;;16.08;75.90
3132;BME280;62090;52.330;9.104;2023-04-23T07:48:02;100197.66;;;16.08;75.49
3132;BME280;62090;52.330;9.104;2023-04-23T07:50:32;100193.44;;;15.97;76.32
3132;BME280;62090;52.330;9.104;2023-04-23T07:53:02;100195.88;;;16.20;74.73
3132;BME280;62090;52.330;9.104;2023-04-23T07:55:34;100186.50;;;16.10;75.23
3132;BME280;62090;52.330;9.104;2023-04-23T07:58:04;100179.59;;;16.20;75.13
3132;BME280;62090;52.330;9.104;2023-04-23T08:00:34;100182.78;;;16.47;73.92
3132;BME280;62090;52.330;9.104;2023-04-23T08:03:04;100181.03;;;16.54;70.32
3132;BME280;62090;52.330;9.104;2023-04-23T08:05:34;100182.75;;;16.52;71.86
3132;BME280;62090;52.330;9.104;2023-04-23T08:08:07;100161.31;;;16.53;71.84
3132;BME280;62090;52.330;9.104;2023-04-23T08:10:39;100163.03;;;16.53;69.96
3132;BME280;62090;52.330;9.104;2023-04-23T08:13:09;100171.56;;;16.58;69.56
3132;BME280;62090;52.330;9.104;2023-04-23T08:15:39;100173.31;;;16.51;69.59
3132;BME280;62090;52.330;9.104;2023-04-23T08:18:09;100166.41;;;16.58;70.67
3132;BME280;62090;52.330;9.104;2023-04-23T08:20:39;100148.28;;;16.74;70.10
3132;BME280;62090;52.330;9.104;2023-04-23T08:23:09;100152.28;;;17.00;69.86
3132;BME280;62090;52.330;9.104;2023-04-23T08:25:41;100153.94;;;17.04;68.45
3132;BME280;62090;52.330;9.104;2023-04-23T08:28:12;100155.66;;;17.06;68.37
3132;BME280;62090;52.330;9.104;2023-04-23T08:30:42;100133.28;;;17.11;66.55
3132;BME280;62090;52.330;9.104;2023-04-23T08:33:12;100151.91;;;17.31;67.57
3132;BME280;62090;52.330;9.104;2023-04-23T08:35:42;100144.13;;;17.36;67.24
3132;BME280;62090;52.330;9.104;2023-04-23T08:38:12;100140.59;;;17.43;66.34
3132;BME280;62090;52.330;9.104;2023-04-23T08:40:45;100143.03;;;17.52;66.91
3132;BME280;62090;52.330;9.104;2023-04-23T08:43:18;100134.34;;;17.61;66.22
3132;BME280;62090;52.330;9.104;2023-04-23T08:45:48;100107.03;;;17.49;64.33
3132;BME280;62090;52.330;9.104;2023-04-23T08:48:18;100130.75;;;17.74;63.99
3132;BME280;62090;52.330;9.104;2023-04-23T08:50:48;100126.31;;;17.84;64.37
3132;BME280;62090;52.330;9.104;2023-04-23T08:53:18;100112.47;;;17.88;64.87
3132;BME280;62090;52.330;9.104;2023-04-23T08:55:53;100136.19;;;18.11;63.35
3132;BME280;62090;52.330;9.104;2023-04-23T08:58:24;100125.19;;;18.00;62.66
3132;BME280;62090;52.330;9.104;2023-04-23T09:00:54;100122.63;;;18.00;63.09
3132;BME280;62090;52.330;9.104;2023-04-23T09:03:24;100127.63;;;18.09;63.28
3132;BME280;62090;52.330;9.104;2023-04-23T09:05:54;100120.03;;;18.01;62.88
3132;BME280;62090;52.330;9.104;2023-04-23T09:08:25;100120.00;;;18.03;62.93
3132;BME280;62090;52.330;9.104;2023-04-23T09:11:00;100131.81;;;18.16;62.29
3132;BME280;62090;52.330;9.104;2023-04-23T09:13:30;100109.56;;;18.09;62.83
3132;BME280;62090;52.330;9.104;2023-04-23T09:16:00;100129.22;;;18.16;63.15
3132;BME280;62090;52.330;9.104;2023-04-23T09:18:30;100123.91;;;18.25;63.67
3132;BME280;62090;52.330;9.104;2023-04-23T09:21:00;100120.19;;;18.41;61.21
3132;BME280;62090;52.330;9.104;2023-04-23T09:23:31;100120.72;;;18.62;62.28
3132;BME280;62090;52.330;9.104;2023-04-23T09:26:07;100100.03;;;18.65;61.55
3132;BME280;62090;52.330;9.104;2023-04-23T09:28:38;100101.72;;;18.66;61.32
3132;BME280;62090;52.330;9.104;2023-04-23T09:31:11;100107.53;;;18.77;60.69
3132;BME280;62090;52.330;9.104;2023-04-23T09:33:42;100105.94;;;18.70;57.55
3132;BME280;62090;52.330;9.104;2023-04-23T09:36:14;100102.97;;;18.89;59.13
3132;BME280;62090;52.330;9.104;2023-04-23T09:38:45;100090.81;;;18.94;58.34
3132;BME280;62090;52.330;9.104;2023-04-23T09:41:24;100091.56;;;19.01;58.79
3132;BME280;62090;52.330;9.104;2023-04-23T09:43:56;100085.56;;;18.99;58.55
3132;BME280;62090;52.330;9.104;2023-04-23T09:46:34;100082.50;;;19.22;58.87
3132;BME280;62090;52.330;9.104;2023-04-23T09:49:06;100092.72;;;19.28;58.18
3132;BME280;62090;52.330;9.104;2023-04-23T09:51:43;100082.34;;;19.29;57.07
3132;BME280;62090;52.330;9.104;2023-04-23T09:54:19;100048.28;;;19.12;57.76
3132;BME280;62090;52.330;9.104;2023-04-23T09:56:53;100075.91;;;19.50;57.52
3132;BME280;62090;52.330;9.104;2023-04-23T09:59:28;100077.53;;;19.53;56.71
3132;BME280;62090;52.330;9.104;2023-04-23T10:02:14;100073.13;;;19.58;57.47
3132;BME280;62090;52.330;9.104;2023-04-23T10:04:49;100052.56;;;19.52;57.64
3132;BME280;62090;52.330;9.104;2023-04-23T10:07:36;100057.56;;;19.61;56.69
3132;BME280;62090;52.330;9.104;2023-04-23T10:10:07;100049.72;;;19.64;57.22
3132;BME280;62090;52.330;9.104;2023-04-23T10:12:40;100057.22;;;19.74;56.15
3132;BME280;62090;52.330;9.104;2023-04-23T10:15:22;100048.16;;;19.92;56.53
3132;BME280;62090;52.330;9.104;2023-04-23T10:17:54;100058.72;;;20.18;55.77
3132;BME280;62090;52.330;9.104;2023-04-23T10:20:25;100051.13;;;20.45;55.97
3132;BME280;62090;52.330;9.104;2023-04-23T10:22:56;100032.84;;;20.18;54.97
3132;BME280;62090;52.330;9.104;2023-04-23T10:25:28;100052.47;;;20.25;54.15
3132;BME280;62090;52.330;9.104;2023-04-23T10:28:02;100006.38;;;20.07;54.46
3132;BME280;62090;52.330;9.104;2023-04-23T10:30:34;100061.50;;;20.09;55.26
3132;BME280;62090;52.330;9.104;2023-04-23T10:33:06;100038.56;;;19.97;54.79
3132;BME280;62090;52.330;9.104;2023-04-23T10:35:55;100052.72;;;20.16;54.67
3132;BME280;62090;52.330;9.104;2023-04-23T10:38:25;100051.41;;;20.34;56.74
3132;BME280;62090;52.330;9.104;2023-04-23T10:40:57;100052.91;;;20.43;55.68
3132;BME280;62090;52.330;9.104;2023-04-23T10:43:31;100061.84;;;20.31;55.61
3132;BME280;62090;52.330;9.104;2023-04-23T10:46:01;100057.88;;;20.16;55.53
3132;BME280;62090;52.330;9.104;2023-04-23T10:48:52;100060.91;;;20.34;56.25
3132;BME280;62090;52.330;9.104;2023-04-23T10:51:34;100045.25;;;20.40;54.50
3132;BME280;62090;52.330;9.104;2023-04-23T10:54:08;100061.53;;;20.43;56.00
3132;BME280;62090;52.330;9.104;2023-04-23T10:56:38;100056.69;;;20.30;55.87
3132;BME280;62090;52.330;9.104;2023-04-23T10:59:20;100052.00;;;20.10;55.92
3132;BME280;62090;52.330;9.104;2023-04-23T11:01:50;100048.56;;;20.09;56.58
3132;BME280;62090;52.330;9.104;2023-04-23T11:04:21;100056.50;;;20.03;56.70
3132;BME280;62090;52.330;9.104;2023-04-23T11:07:06;100057.88;;;20.16;55.41
3132;BME280;62090;52.330;9.104;2023-04-23T11:09:39;100045.19;;;20.07;56.67
3132;BME280;62090;52.330;9.104;2023-04-23T11:12:11;100037.44;;;20.07;56.98
3132;BME280;62090;52.330;9.104;2023-04-23T11:14:45;99992.84;;;19.98;55.42
3132;BME280;62090;52.330;9.104;2023-04-23T11:17:17;100054.09;;;20.30;56.58
3132;BME280;62090;52.330;9.104;2023-04-23T11:20:08;100046.78;;;20.13;56.12
3132;BME280;62090;52.330;9.104;2023-04-23T11:22:41;100034.63;;;20.15;56.87
3132;BME280;62090;52.330;9.104;2023-04-23T11:25:13;100033.94;;;20.42;56.71
3132;BME280;62090;52.330;9.104;2023-04-23T11:27:44;100019.47;;;20.66;57.72
3132;BME280;62090;52.330;9.104;2023-04-23T11:30:20;100028.75;;;20.73;56.59
3132;BME280;62090;52.330;9.104;2023-04-23T11:32:51;100016.88;;;20.66;57.88
3132;BME280;62090;52.330;9.104;2023-04-23T11:35:23;100008.03;;;20.73;56.79
3132;BME280;62090;52.330;9.104;2023-04-23T11:37:54;100015.91;;;20.70;56.04
3132;BME280;62090;52.330;9.104;2023-04-23T11:40:24;100035.00;;;20.66;57.44
3132;BME280;62090;52.330;9.104;2023-04-23T11:42:56;100032.38;;;20.37;56.35
3132;BME280;62090;52.330;9.104;2023-04-23T11:45:29;100032.75;;;20.54;56.84
3132;BME280;62090;52.330;9.104;2023-04-23T11:47:59;100019.47;;;20.66;56.17
3132;BME280;62090;52.330;9.104;2023-04-23T11:50:30;100000.16;;;20.47;56.02
3132;BME280;62090;52.330;9.104;2023-04-23T11:53:03;100017.31;;;20.51;56.05
3132;BME280;62090;52.330;9.104;2023-04-23T11:55:33;100015.94;;;20.38;57.54
3132;BME280;62090;52.330;9.104;2023-04-23T11:58:03;100011.84;;;20.29;57.00
3132;BME280;62090;52.330;9.104;2023-04-23T12:00:36;100001.13;;;20.10;57.29
3132;BME280;62090;52.330;9.104;2023-04-23T12:03:06;100019.09;;;20.15;56.24
3132;BME280;62090;52.330;9.104;2023-04-23T12:05:43;100003.06;;;20.04;57.70
3132;BME280;62090;52.330;9.104;2023-04-23T12:08:15;100012.41;;;20.08;58.13
3132;BME280;62090;52.330;9.104;2023-04-23T12:10:48;99997.91;;;20.02;57.85
3132;BME280;62090;52.330;9.104;2023-04-23T12:13:20;100016.94;;;20.34;58.74
3132;BME280;62090;52.330;9.104;2023-04-23T12:15:54;100002.75;;;20.14;59.27
3132;BME280;62090;52.330;9.104;2023-04-23T12:18:26;99980.09;;;19.90;56.61
3132;BME280;62090;52.330;9.104;2023-04-23T12:21:03;100009.22;;;19.98;58.45
3132;BME280;62090;52.330;9.104;2023-04-23T12:23:34;100005.78;;;19.98;58.38
3132;BME280;62090;52.330;9.104;2023-04-23T12:26:09;100022.47;;;20.18;55.52
3132;BME280;62090;52.330;9.104;2023-04-23T12:28:45;99995.19;;;20.07;53.96
3132;BME280;62090;52.330;9.104;2023-04-23T12:31:21;100019.84;;;20.20;54.72
3132;BME280;62090;52.330;9.104;2023-04-23T12:34:01;100007.75;;;20.20;54.19
3132;BME280;62090;52.330;9.104;2023-04-23T12:36:31;100022.50;;;20.17;54.20
3132;BME280;62090;52.330;9.104;2023-04-23T12:39:19;100042.06;;;19.95;50.46
3132;BME280;62090;52.330;9.104;2023-04-23T12:41:51;100016.22;;;19.59;50.94
3132;BME280;62090;52.330;9.104;2023-04-23T12:44:22;100001.06;;;19.46;52.15
3132;BME280;62090;52.330;9.104;2023-04-23T12:46:59;100004.16;;;19.60;51.41
3132;BME280;62090;52.330;9.104;2023-04-23T12:49:31;99988.56;;;19.63;51.90
3132;BME280;62090;52.330;9.104;2023-04-23T12:52:03;99989.41;;;19.97;52.26
3132;BME280;62090;52.330;9.104;2023-04-23T12:54:34;100000.53;;;20.35;51.97
3132;BME280;62090;52.330;9.104;2023-04-23T12:57:06;100001.19;;;20.72;51.86
3132;BME280;62090;52.330;9.104;2023-04-23T12:59:36;99999.63;;;20.94;51.78
3132;BME280;62090;52.330;9.104;2023-04-23T13:02:09;100004.50;;;21.05;51.55
3132;BME280;62090;52.330;9.104;2023-04-23T13:04:39;99988.91;;;21.06;52.77
3132;BME280;62090;52.330;9.104;2023-04-23T13:07:09;99987.72;;;21.18;52.38
3132;BME280;62090;52.330;9.104;2023-04-23T13:09:39;99981.50;;;21.24;52.29
3132;BME280;62090;52.330;9.104;2023-04-23T13:12:09;99984.41;;;21.13;52.16
3132;BME280;62090;52.330;9.104;2023-04-23T13:14:39;99971.84;;;21.29;51.19
3132;BME280;62090;52.330;9.104;2023-04-23T13:17:12;99975.13;;;21.34;51.40
3132;BME280;62090;52.330;9.104;2023-04-23T13:19:41;99956.28;;;21.29;51.27
3132;BME280;62090;52.330;9.104;2023-04-23T13:22:11;99966.53;;;21.32;51.25
3132;BME280;62090;52.330;9.104;2023-04-23T13:24:41;99956.66;;;21.17;51.47